Time;durP1;ratioP1;P1;durP2;ratioP2;P2;SDS_P1;SDS_P2;PMS_P1;PMS_P2;Temp;Humidity;BMP_temperature;BMP_pressure;BME280_temperature;BME280_humidity;BME280_pressure;Samples;Min_cycle;Max_cycle;Signal;HPM_P1;HPM_P2
2022/12/12 00:01:12;;;;;;;30.77;13.87;;;2.60;99.90;;;;;;5070541;28;20203;-61
2022/12/12 00:03:37;;;;;;;32.13;12.63;;;2.40;99.90;;;;;;5070480;28;20214;-60
2022/12/12 00:06:04;;;;;;;30.50;13.47;;;2.60;99.90;;;;;;5070859;28;20227;-60
2022/12/12 00:08:31;;;;;;;28.47;12.90;;;;;;;;;;5070540;28;20192;-60
2022/12/12 00:10:57;;;;;;;31.40;13.57;;;2.60;99.90;;;;;;5070572;28;20173;-60
2022/12/12 00:13:23;;;;;;;32.10;13.93;;;2.50;99.90;;;;;;5070262;28;20177;-60
2022/12/12 00:15:48;;;;;;;33.43;13.17;;;1.70;99.90;;;;;;5070530;28;20516;-60
2022/12/12 00:18:14;;;;;;;30.93;13.50;;;2.70;99.90;;;;;;5070227;28;20161;-59
2022/12/12 00:20:40;;;;;;;30.50;13.63;;;2.50;99.90;;;;;;5069285;28;20261;-60
2022/12/12 00:23:05;;;;;;;31.93;13.30;;;2.90;99.90;;;;;;5070767;28;20307;-60
2022/12/12 00:25:31;;;;;;;32.73;13.30;;;2.50;99.90;;;;;;5070582;28;20188;-61
2022/12/12 00:27:58;;;;;;;27.40;12.47;;;2.50;99.90;;;;;;5070676;28;20169;-60
2022/12/12 00:30:24;;;;;;;32.93;13.07;;;;;;;;;;5070201;28;20176;-61
2022/12/12 00:32:50;;;;;;;30.20;12.67;;;2.40;99.90;;;;;;5070049;28;20185;-61
2022/12/12 00:35:16;;;;;;;28.63;11.90;;;2.60;99.90;;;;;;5069082;28;20223;-59
2022/12/12 00:37:42;;;;;;;27.10;12.17;;;2.50;99.90;;;;;;5069767;28;20287;-60
2022/12/12 00:40:09;;;;;;;26.67;12.43;;;2.40;99.90;;;;;;5069601;28;20527;-60
2022/12/12 00:42:35;;;;;;;27.97;12.30;;;;;;;;;;5068806;28;20655;-60
2022/12/12 00:45:01;;;;;;;27.20;12.07;;;;;;;;;;5068717;28;20219;-60
2022/12/12 00:47:27;;;;;;;25.70;12.23;;;;;;;;;;5061048;28;20212;-60
2022/12/12 00:49:53;;;;;;;27.23;11.93;;;;;;;;;;5057606;28;20255;-60
2022/12/12 00:52:18;;;;;;;27.57;12.63;;;2.30;99.90;;;;;;5069752;28;20699;-60
2022/12/12 00:54:44;;;;;;;31.03;13.27;;;2.30;99.90;;;;;;5069900;28;20263;-60
2022/12/12 00:57:10;;;;;;;33.80;14.30;;;2.20;99.90;;;;;;5070420;28;20165;-60
2022/12/12 00:59:35;;;;;;;32.63;13.83;;;2.40;99.90;;;;;;5070555;28;20651;-60
2022/12/12 01:02:02;;;;;;;42.80;16.67;;;;;;;;;;5073621;28;20176;-60
2022/12/12 01:04:28;;;;;;;36.33;15.63;;;2.20;99.90;;;;;;5073563;28;20177;-60
2022/12/12 01:06:53;;;;;;;36.13;15.30;;;2.20;99.90;;;;;;5073271;28;20212;-61
2022/12/12 01:09:19;;;;;;;38.40;16.30;;;2.10;99.90;;;;;;5073334;28;20176;-61
2022/12/12 01:11:45;;;;;;;36.13;15.67;;;2.40;99.90;;;;;;5073362;28;20256;-61
2022/12/12 01:14:10;;;;;;;35.03;15.67;;;2.50;99.90;;;;;;5073373;28;20165;-61
2022/12/12 01:16:36;;;;;;;36.20;16.00;;;2.40;99.90;;;;;;5073068;28;20184;-61
2022/12/12 01:19:02;;;;;;;34.97;15.00;;;2.30;99.90;;;;;;5069785;28;20165;-61
2022/12/12 01:21:27;;;;;;;37.43;14.53;;;2.40;99.90;;;;;;5073559;28;20517;-60
2022/12/12 01:23:53;;;;;;;38.63;15.47;;;2.70;99.90;;;;;;5073320;28;20188;-60
2022/12/12 01:26:22;;;;;;;40.47;16.03;;;2.50;99.90;;;;;;5072899;28;20697;-62
2022/12/12 01:28:48;;;;;;;38.63;14.90;;;;;;;;;;5072207;28;20650;-60
2022/12/12 01:31:14;;;;;;;34.07;13.87;;;2.30;99.90;;;;;;5073248;28;20273;-61
2022/12/12 01:33:44;;;;;;;35.50;13.40;;;2.60;99.90;;;;;;5070832;28;20746;-61
2022/12/12 01:36:15;;;;;;;38.20;14.53;;;2.30;99.90;;;;;;5069628;28;20301;-60
2022/12/12 01:38:47;;;;;;;34.63;14.53;;;2.20;99.90;;;;;;5073378;28;20183;-59
2022/12/12 01:41:13;;;;;;;36.27;14.63;;;2.60;99.90;;;;;;5071860;28;20539;-62
2022/12/12 01:43:40;;;;;;;35.23;14.50;;;2.40;99.90;;;;;;5073103;28;20165;-59
2022/12/12 01:46:29;;;;;;;36.63;14.37;;;2.40;99.90;;;;;;5072878;28;20299;-59
2022/12/12 01:49:12;;;;;;;34.83;13.63;;;2.30;99.90;;;;;;5072902;28;20183;-60
2022/12/12 01:51:39;;;;;;;36.60;14.23;;;2.60;99.90;;;;;;5072669;28;20172;-59
2022/12/12 01:54:09;;;;;;;36.67;14.13;;;2.40;99.90;;;;;;5070046;28;20272;-60
2022/12/12 01:56:38;;;;;;;32.97;13.57;;;2.80;99.90;;;;;;5083747;28;20211;-60
2022/12/12 01:59:07;;;;;;;39.43;14.97;;;2.30;99.90;;;;;;5072432;28;20180;-60
2022/12/12 02:01:33;;;;;;;37.43;14.27;;;2.50;99.90;;;;;;5072042;28;20207;-60
2022/12/12 02:04:00;;;;;;;36.03;14.03;;;2.70;99.90;;;;;;5072424;28;20643;-60
2022/12/12 02:06:27;;;;;;;36.97;13.13;;;2.40;99.90;;;;;;5072268;28;20201;-60
2022/12/12 02:08:56;;;;;;;37.47;14.97;;;2.30;99.90;;;;;;5072184;28;20230;-60
2022/12/12 02:11:21;;;;;;;29.53;12.80;;;2.50;99.90;;;;;;5071654;28;20180;-60
2022/12/12 02:13:48;;;;;;;38.77;14.43;;;2.50;99.90;;;;;;5072116;28;20179;-60
2022/12/12 02:16:44;;;;;;;40.73;15.57;;;2.40;99.90;;;;;;5072065;28;20211;-60
2022/12/12 02:19:28;;;;;;;31.73;12.77;;;2.40;99.90;;;;;;5071867;28;20172;-60
2022/12/12 02:22:25;;;;;;;31.60;12.90;;;2.30;99.90;;;;;;5072233;28;20177;-60
2022/12/12 02:25:11;;;;;;;40.20;14.17;;;2.50;99.90;;;;;;5072056;28;20172;-60
2022/12/12 02:27:37;;;;;;;33.97;13.60;;;;;;;;;;5070680;28;20216;-60
2022/12/12 02:30:28;;;;;;;36.87;13.47;;;2.40;99.90;;;;;;5071801;28;20259;-60
2022/12/12 02:33:28;;;;;;;37.50;13.47;;;2.50;99.90;;;;;;5069058;28;20203;-60
2022/12/12 02:36:11;;;;;;;34.50;13.77;;;2.70;99.90;;;;;;5071010;28;20212;-60
2022/12/12 02:39:03;;;;;;;38.10;14.20;;;2.40;99.90;;;;;;5071625;28;20179;-60
2022/12/12 02:41:57;;;;;;;39.33;14.17;;;2.30;99.90;;;;;;5069734;28;20184;-60
2022/12/12 02:44:38;;;;;;;37.53;14.20;;;2.30;99.90;;;;;;5071852;28;20200;-60
2022/12/12 02:47:14;;;;;;;36.60;13.93;;;2.20;99.90;;;;;;5071801;28;20261;-59
2022/12/12 02:49:56;;;;;;;38.67;13.80;;;2.20;99.90;;;;;;5071787;28;20167;-60
2022/12/12 02:52:22;;;;;;;35.87;13.57;;;;;;;;;;5071258;28;20627;-59
2022/12/12 02:54:48;;;;;;;36.00;14.83;;;;;;;;;;5069945;28;20185;-59
2022/12/12 02:57:22;;;;;;;35.17;13.60;;;2.40;99.90;;;;;;5071645;28;20179;-60
2022/12/12 03:00:04;;;;;;;39.37;15.23;;;2.40;99.90;;;;;;5070974;28;20180;-60
2022/12/12 03:02:30;;;;;;;37.30;13.83;;;;;;;;;;5071345;28;20176;-59
2022/12/12 03:07:46;;;;;;;33.87;14.50;;;;;;;;;;5071057;28;20315;-60
2022/12/12 03:10:47;;;;;;;33.23;12.97;;;2.40;99.90;;;;;;5071026;28;20200;-60
2022/12/12 03:13:21;;;;;;;41.03;14.33;;;2.50;99.90;;;;;;5068348;28;20195;-59
2022/12/12 03:16:24;;;;;;;37.60;14.93;;;2.10;99.90;;;;;;5070828;28;20196;-60
2022/12/12 03:19:07;;;;;;;44.53;14.90;;;2.30;99.90;;;;;;5066321;28;20180;-60
2022/12/12 03:21:45;;;;;;;42.27;14.37;;;2.20;99.90;;;;;;5069225;28;20180;-60
2022/12/12 03:24:43;;;;;;;42.73;13.80;;;2.10;99.90;;;;;;5070925;28;20175;-60
2022/12/12 03:27:17;;;;;;;36.00;14.27;;;2.40;99.90;;;;;;5071004;28;20761;-60
2022/12/12 03:29:48;;;;;;;36.30;13.73;;;2.30;99.90;;;;;;5071092;28;20200;-60
2022/12/12 03:32:21;;;;;;;38.07;13.30;;;2.00;99.90;;;;;;5069956;28;20650;-59
2022/12/12 03:34:54;;;;;;;36.00;14.00;;;2.30;99.90;;;;;;5070663;28;20539;-60
2022/12/12 03:37:26;;;;;;;37.37;14.67;;;2.40;99.90;;;;;;5070546;28;20267;-59
2022/12/12 03:39:56;;;;;;;33.83;14.80;;;2.10;99.90;;;;;;5065894;28;20254;-60
2022/12/12 03:42:41;;;;;;;35.20;14.73;;;2.30;99.90;;;;;;5071216;28;20177;-60
2022/12/12 03:45:12;;;;;;;40.97;14.50;;;2.20;99.90;;;;;;5071194;28;20172;-60
2022/12/12 03:48:00;;;;;;;32.00;13.03;;;2.10;99.90;;;;;;5070963;28;20200;-59
2022/12/12 03:50:30;;;;;;;37.93;14.10;;;3.90;99.90;;;;;;5071098;28;20255;-59
2022/12/12 03:53:04;;;;;;;34.10;12.90;;;2.20;99.90;;;;;;5070880;28;20177;-59
2022/12/12 03:55:46;;;;;;;34.67;13.63;;;2.00;99.90;;;;;;5070463;28;20180;-60
2022/12/12 03:58:25;;;;;;;32.87;12.43;;;2.00;99.90;;;;;;5070779;28;20183;-60
2022/12/12 04:00:54;;;;;;;28.83;12.63;;;2.00;99.90;;;;;;5070545;28;20173;-60
2022/12/12 04:03:31;;;;;;;34.30;12.43;;;1.80;99.90;;;;;;5070700;28;20679;-61
2022/12/12 04:15:02;;;;;;;34.77;13.40;;;1.70;99.90;;;;;;5064322;28;20263;-59
2022/12/12 04:17:39;;;;;;;36.17;13.30;;;1.70;99.90;;;;;;5070365;28;20703;-61
2022/12/12 04:23:23;;;;;;;36.60;14.03;;;;;;;;;;5059512;28;20715;-61
2022/12/12 04:28:53;;;;;;;36.57;14.00;;;1.50;99.90;;;;;;5069806;28;20238;-59
2022/12/12 04:31:22;;;;;;;39.20;13.93;;;1.60;99.90;;;;;;5070749;28;20168;-60
2022/12/12 04:33:50;;;;;;;38.40;13.90;;;1.60;99.90;;;;;;5069699;28;20204;-59
2022/12/12 04:36:18;;;;;;;34.10;13.67;;;1.90;99.90;;;;;;5074071;28;20245;-59
2022/12/12 04:38:46;;;;;;;33.57;13.07;;;1.60;99.90;;;;;;5072506;28;20180;-59
2022/12/12 04:41:15;;;;;;;33.13;12.77;;;2.00;99.90;;;;;;5074051;28;20164;-59
2022/12/12 04:43:43;;;;;;;38.20;14.67;;;1.90;99.90;;;;;;5068524;28;20181;-59
2022/12/12 04:46:19;;;;;;;36.53;14.57;;;1.90;99.90;;;;;;5052751;28;20209;-59
2022/12/12 04:48:58;;;;;;;40.07;14.53;;;0.90;99.90;;;;;;5069858;28;20180;-59
2022/12/12 04:51:32;;;;;;;41.77;15.27;;;1.80;99.90;;;;;;5073411;28;20186;-59
2022/12/12 04:54:22;;;;;;;35.13;14.73;;;1.90;99.90;;;;;;5058020;28;20176;-59
2022/12/12 04:56:54;;;;;;;31.70;13.37;;;2.00;99.90;;;;;;5057103;28;20241;-59
2022/12/12 04:59:20;;;;;;;35.37;13.77;;;1.90;99.90;;;;;;5067430;28;20176;-59
2022/12/12 05:01:51;;;;;;;37.87;14.27;;;1.00;99.90;;;;;;5072884;28;20191;-59
2022/12/12 05:04:26;;;;;;;33.37;14.03;;;1.50;99.90;;;;;;5073538;28;20237;-59
2022/12/12 05:07:01;;;;;;;38.27;14.37;;;2.00;99.90;;;;;;5073551;28;20257;-59
2022/12/12 05:09:27;;;;;;;39.63;15.40;;;;;;;;;;5072956;28;20184;-59
2022/12/12 05:11:53;;;;;;;35.60;14.53;;;2.00;99.90;;;;;;5073036;28;20189;-60
2022/12/12 05:14:19;;;;;;;36.80;14.77;;;;;;;;;;5073241;28;20187;-60
2022/12/12 05:16:53;;;;;;;37.93;14.87;;;1.90;99.90;;;;;;5073453;28;20180;-60
2022/12/12 05:19:19;;;;;;;32.87;14.60;;;1.90;99.90;;;;;;5073045;28;20176;-60
2022/12/12 05:21:44;;;;;;;41.40;15.17;;;1.80;99.90;;;;;;5072554;28;20191;-60
2022/12/12 05:24:10;;;;;;;33.80;13.67;;;1.70;99.90;;;;;;5073782;28;20172;-60
2022/12/12 05:26:36;;;;;;;37.67;14.30;;;;;;;;;;5073415;28;20234;-60
2022/12/12 05:29:03;;;;;;;36.00;14.10;;;2.40;99.90;;;;;;5073475;28;20183;-60
2022/12/12 05:31:28;;;;;;;36.70;14.90;;;1.80;99.90;;;;;;5073400;28;20251;-59
2022/12/12 05:33:54;;;;;;;35.33;13.60;;;;;;;;;;5073388;28;20255;-60
2022/12/12 05:36:21;;;;;;;32.50;14.87;;;1.90;99.90;;;;;;5073086;28;20216;-60
2022/12/12 05:38:47;;;;;;;35.60;14.13;;;;;;;;;;5073205;28;20168;-60
2022/12/12 05:41:12;;;;;;;34.67;15.27;;;2.20;99.90;;;;;;5072197;28;20260;-60
2022/12/12 05:43:38;;;;;;;43.00;15.97;;;;;;;;;;5072579;28;20255;-60
2022/12/12 05:46:05;;;;;;;42.07;16.03;;;1.90;99.90;;;;;;5070823;28;20204;-59
2022/12/12 05:48:31;;;;;;;41.10;17.53;;;2.00;99.90;;;;;;5069859;28;20223;-59
2022/12/12 05:50:59;;;;;;;44.40;18.80;;;3.00;99.90;;;;;;5072410;28;20694;-59
2022/12/12 05:53:24;;;;;;;47.47;17.43;;;;;;;;;;5071066;28;20176;-59
2022/12/12 05:55:50;;;;;;;42.80;17.57;;;1.90;99.90;;;;;;5071937;28;20532;-59
2022/12/12 05:58:17;;;;;;;44.13;17.87;;;;;;;;;;5071149;28;20275;-59
2022/12/12 06:00:42;;;;;;;46.43;17.33;;;2.40;99.90;;;;;;5072634;28;20165;-59
2022/12/12 06:03:08;;;;;;;43.87;18.93;;;;;;;;;;5072424;28;20188;-60
2022/12/12 06:05:34;;;;;;;41.80;17.20;;;;;;;;;;5072524;28;20168;-60
2022/12/12 06:08:00;;;;;;;43.50;18.53;;;;;;;;;;5072139;28;20679;-60
2022/12/12 06:10:26;;;;;;;48.83;17.53;;;;;;;;;;5071213;28;20180;-60
2022/12/12 06:12:52;;;;;;;49.00;18.63;;;1.70;99.90;;;;;;5071880;28;20512;-60
2022/12/12 06:15:18;;;;;;;47.97;17.47;;;;;;;;;;5072138;28;20259;-61
2022/12/12 06:17:44;;;;;;;49.63;17.83;;;1.80;99.90;;;;;;5071839;28;20212;-59
2022/12/12 06:20:09;;;;;;;42.20;17.57;;;1.80;99.90;;;;;;5072406;28;20212;-59
2022/12/12 06:22:35;;;;;;;46.63;18.23;;;1.30;99.90;;;;;;5072195;28;20184;-59
2022/12/12 06:25:02;;;;;;;45.87;17.90;;;1.90;99.90;;;;;;5071763;28;20583;-60
2022/12/12 06:27:27;;;;;;;45.00;17.53;;;1.90;99.90;;;;;;5070229;28;20219;-59
2022/12/12 06:29:53;;;;;;;49.47;18.40;;;;;;;;;;5071801;28;20192;-59
2022/12/12 06:32:19;;;;;;;43.77;16.77;;;;;;;;;;5071886;28;20656;-59
2022/12/12 06:34:45;;;;;;;44.17;17.60;;;1.60;99.90;;;;;;5072063;28;20180;-60
2022/12/12 06:37:11;;;;;;;48.37;18.13;;;;;;;;;;5070302;28;20736;-60
2022/12/12 06:39:37;;;;;;;52.57;18.20;;;;;;;;;;5067950;28;20638;-59
2022/12/12 06:42:03;;;;;;;46.77;17.77;;;;;;;;;;5069843;28;20176;-59
2022/12/12 06:44:29;;;;;;;47.90;17.87;;;;;;;;;;5051235;28;20173;-59
2022/12/12 06:46:55;;;;;;;49.23;19.63;;;1.70;99.90;;;;;;5058037;28;20717;-59
2022/12/12 06:49:21;;;;;;;52.07;20.00;;;;;;;;;;5056381;28;20192;-59
2022/12/12 06:51:47;;;;;;;48.53;18.57;;;1.10;99.90;;;;;;5064281;28;20176;-59
2022/12/12 06:54:16;;;;;;;49.83;19.20;;;1.60;99.90;;;;;;5057507;28;20663;-59
2022/12/12 06:56:43;;;;;;;51.53;19.80;;;1.70;99.90;;;;;;5066480;28;20188;-59
2022/12/12 06:59:10;;;;;;;49.90;19.90;;;1.70;99.90;;;;;;5070709;28;20643;-60
2022/12/12 07:01:36;;;;;;;49.83;19.83;;;;;;;;;;5071205;28;20195;-59
2022/12/12 07:04:02;;;;;;;49.80;19.43;;;;;;;;;;5071253;28;20194;-58
2022/12/12 07:06:28;;;;;;;45.90;20.00;;;;;;;;;;5071431;28;20208;-59
2022/12/12 07:08:56;;;;;;;52.90;19.77;;;1.40;99.90;;;;;;5070698;28;20566;-59
2022/12/12 07:11:24;;;;;;;48.97;18.90;;;1.40;99.90;;;;;;5071478;28;20171;-59
2022/12/12 07:13:51;;;;;;;51.73;20.43;;;1.30;99.90;;;;;;5070974;28;20172;-59
2022/12/12 07:16:18;;;;;;;49.47;19.30;;;1.40;99.90;;;;;;5071339;28;20177;-60
2022/12/12 07:18:44;;;;;;;46.57;19.40;;;;;;;;;;5071281;28;20704;-60
2022/12/12 07:21:13;;;;;;;50.67;19.90;;;1.20;99.90;;;;;;5071053;28;20169;-60
2022/12/12 07:23:39;;;;;;;56.13;19.97;;;;;;;;;;5071103;28;20206;-60
2022/12/12 07:26:13;;;;;;;59.20;20.50;;;1.30;99.90;;;;;;5071180;28;20287;-60
2022/12/12 07:28:39;;;;;;;50.60;20.90;;;1.30;99.90;;;;;;5071192;28;20293;-61
2022/12/12 07:31:07;;;;;;;47.27;19.43;;;1.40;99.90;;;;;;5071117;28;20196;-59
2022/12/12 07:33:33;;;;;;;51.60;19.23;;;1.40;99.90;;;;;;5063723;28;20255;-60
2022/12/12 07:35:59;;;;;;;54.77;20.87;;;1.50;99.90;;;;;;5070767;28;20230;-60
2022/12/12 07:38:25;;;;;;;50.73;20.47;;;;;;;;;;5070390;28;20183;-59
2022/12/12 07:40:51;;;;;;;52.67;19.80;;;1.30;99.90;;;;;;5068295;28;20655;-59
2022/12/12 07:43:17;;;;;;;56.13;23.43;;;1.40;99.90;;;;;;5070674;28;20188;-59
2022/12/12 07:45:44;;;;;;;49.77;20.67;;;1.30;99.90;;;;;;5071000;28;20263;-59
2022/12/12 07:48:10;;;;;;;51.33;21.93;;;;;;;;;;5070297;28;20183;-59
2022/12/12 07:50:40;;;;;;;51.97;20.20;;;1.20;99.90;;;;;;5050843;28;20811;-60
2022/12/12 07:53:07;;;;;;;52.80;21.27;;;1.20;99.90;;;;;;5054708;28;20183;-60
2022/12/12 07:55:33;;;;;;;54.57;21.03;;;1.50;99.90;;;;;;5070278;28;20213;-60
2022/12/12 07:57:59;;;;;;;58.63;22.57;;;1.20;99.90;;;;;;5070411;28;20632;-61
2022/12/12 08:00:25;;;;;;;52.47;20.87;;;1.30;99.90;;;;;;5070742;28;20206;-61
2022/12/12 08:02:51;;;;;;;54.93;20.63;;;;;;;;;;5064089;28;20171;-61
2022/12/12 08:05:17;;;;;;;91.30;24.60;;;;;;;;;;5073464;28;20677;-61
2022/12/12 08:07:43;;;;;;;51.37;21.33;;;1.30;99.90;;;;;;5070861;28;20281;-60
2022/12/12 08:10:09;;;;;;;49.00;20.23;;;1.00;99.90;;;;;;5074237;28;20639;-61
2022/12/12 08:12:35;;;;;;;46.83;18.83;;;1.10;99.90;;;;;;5074916;28;20180;-61
2022/12/12 08:15:00;;;;;;;47.60;19.00;;;0.90;99.90;;;;;;5054923;28;20252;-61
2022/12/12 08:17:26;;;;;;;52.43;20.07;;;;;;;;;;5054937;28;20251;-61
2022/12/12 08:19:52;;;;;;;48.17;19.83;;;;;;;;;;5054843;28;20177;-61
2022/12/12 08:22:19;;;;;;;48.20;18.50;;;0.90;99.90;;;;;;5067963;28;20176;-60
2022/12/12 08:24:47;;;;;;;47.90;19.97;;;0.80;99.90;;;;;;5074694;28;20180;-59
2022/12/12 08:27:13;;;;;;;42.57;17.07;;;;;;;;;;5073051;28;20211;-59
2022/12/12 08:29:39;;;;;;;49.60;19.90;;;;;;;;;;5069269;28;20192;-59
2022/12/12 08:32:05;;;;;;;49.33;19.57;;;0.90;99.90;;;;;;5072382;28;20230;-59
2022/12/12 08:34:31;;;;;;;49.90;21.07;;;;;;;;;;5066883;28;20200;-59
2022/12/12 08:36:56;;;;;;;48.43;19.70;;;1.10;99.90;;;;;;5072041;28;20319;-59
2022/12/12 08:39:22;;;;;;;45.03;19.33;;;;;;;;;;5073073;28;20203;-60
2022/12/12 08:41:49;;;;;;;48.27;19.73;;;;;;;;;;5073403;28;20527;-59
2022/12/12 08:44:17;;;;;;;53.03;21.87;;;1.30;99.90;;;;;;5073964;28;20176;-59
2022/12/12 08:46:42;;;;;;;56.80;21.80;;;1.20;99.90;;;;;;5074035;28;20294;-60
2022/12/12 08:49:09;;;;;;;53.43;21.87;;;2.80;99.90;;;;;;5073630;28;20211;-60
2022/12/12 08:51:39;;;;;;;51.27;20.77;;;1.30;99.90;;;;;;5073781;28;20191;-60
2022/12/12 08:54:05;;;;;;;54.50;20.30;;;1.50;99.90;;;;;;5074037;28;20195;-59
2022/12/12 08:56:31;;;;;;;55.90;20.83;;;1.50;99.90;;;;;;5073825;28;20234;-59
2022/12/12 08:58:57;;;;;;;52.00;21.53;;;;;;;;;;5072342;28;20189;-58
2022/12/12 09:01:26;;;;;;;48.97;20.93;;;1.70;99.90;;;;;;5073223;28;20180;-58
2022/12/12 09:03:53;;;;;;;53.73;21.57;;;1.40;99.90;;;;;;5073678;28;20537;-59
2022/12/12 09:06:20;;;;;;;51.97;19.97;;;1.00;99.90;;;;;;5073236;28;20220;-59
2022/12/12 09:08:46;;;;;;;48.00;20.07;;;0.90;99.90;;;;;;5073442;28;20230;-59
2022/12/12 09:11:12;;;;;;;43.87;17.40;;;;;;;;;;5072895;28;20200;-59
2022/12/12 09:13:38;;;;;;;48.50;18.83;;;0.10;99.90;;;;;;5073637;28;20181;-59
2022/12/12 09:16:06;;;;;;;48.13;20.13;;;1.10;99.90;;;;;;5073219;28;20171;-60
2022/12/12 09:18:32;;;;;;;57.20;21.63;;;0.90;99.90;;;;;;5061590;28;20195;-59
2022/12/12 09:20:58;;;;;;;48.13;20.33;;;;;;;;;;5093025;28;20171;-60
2022/12/12 09:23:26;;;;;;;48.00;20.03;;;0.90;99.90;;;;;;5077047;28;20199;-60
2022/12/12 09:25:52;;;;;;;47.73;19.03;;;-0.20;99.90;;;;;;5073281;28;20207;-60
2022/12/12 09:28:19;;;;;;;51.50;19.47;;;0.90;99.90;;;;;;5072514;28;20259;-60
2022/12/12 09:30:46;;;;;;;43.53;17.67;;;0.70;99.90;;;;;;5073513;28;20175;-60
2022/12/12 09:33:12;;;;;;;52.37;19.40;;;0.70;99.90;;;;;;5073463;28;20169;-60
2022/12/12 09:35:38;;;;;;;41.87;18.53;;;0.60;99.90;;;;;;5073158;28;20208;-60
2022/12/12 09:38:05;;;;;;;44.47;18.53;;;0.80;99.90;;;;;;5072305;28;20646;-60
2022/12/12 09:40:42;;;;;;;46.57;18.50;;;0.60;99.90;;;;;;5073137;28;20712;-60
2022/12/12 09:43:14;;;;;;;47.90;19.77;;;0.80;99.90;;;;;;5073257;28;20181;-60
2022/12/12 09:45:41;;;;;;;45.00;18.27;;;1.10;99.90;;;;;;5072875;28;20278;-60
2022/12/12 09:48:07;;;;;;;48.60;18.67;;;;;;;;;;5072373;28;20216;-60
2022/12/12 09:50:46;;;;;;;50.97;20.63;;;1.00;99.90;;;;;;5072754;28;20165;-60
2022/12/12 09:53:17;;;;;;;54.90;20.83;;;1.20;99.90;;;;;;5072451;28;20179;-60
2022/12/12 09:55:43;;;;;;;55.47;21.17;;;;;;;;;;5072311;28;20184;-60
2022/12/12 09:58:34;;;;;;;56.23;21.50;;;1.30;99.90;;;;;;5071901;28;20195;-60
2022/12/12 10:01:11;;;;;;;54.57;20.03;;;1.00;99.90;;;;;;5072706;28;20551;-60
2022/12/12 10:04:19;;;;;;;45.27;19.10;;;1.20;99.90;;;;;;5072606;28;20715;-59
2022/12/12 10:07:00;;;;;;;52.93;19.33;;;0.90;99.90;;;;;;5068477;28;20218;-59
2022/12/12 10:09:45;;;;;;;51.03;19.40;;;1.10;99.90;;;;;;5072222;28;20256;-60
2022/12/12 10:12:14;;;;;;;47.07;18.87;;;1.00;99.90;;;;;;5072301;28;20171;-60
2022/12/12 10:14:46;;;;;;;52.70;19.27;;;1.30;99.90;;;;;;5071965;28;20255;-60
2022/12/12 10:17:19;;;;;;;48.63;19.60;;;1.30;99.90;;;;;;5086622;28;20188;-60
2022/12/12 10:19:57;;;;;;;53.37;20.20;;;1.50;99.90;;;;;;5064636;28;20253;-60
2022/12/12 10:22:41;;;;;;;47.73;19.30;;;1.10;99.90;;;;;;5072006;28;20183;-60
2022/12/12 10:25:31;;;;;;;48.23;19.77;;;1.70;99.90;;;;;;5072365;28;20177;-58
2022/12/12 10:28:11;;;;;;;46.70;19.67;;;1.20;99.90;;;;;;5072095;28;20211;-58
2022/12/12 10:31:04;;;;;;;48.13;18.67;;;1.90;99.90;;;;;;5072127;28;20168;-58
2022/12/12 10:33:40;;;;;;;50.83;19.20;;;1.70;99.90;;;;;;5072220;28;20248;-60
2022/12/12 10:36:16;;;;;;;46.67;18.93;;;1.80;99.90;;;;;;5071849;28;20215;-59
2022/12/12 10:38:59;;;;;;;44.70;18.80;;;2.10;99.90;;;;;;5072121;28;20172;-59
2022/12/12 10:41:57;;;;;;;44.07;17.60;;;2.20;99.90;;;;;;5071735;28;20180;-59
2022/12/12 10:44:47;;;;;;;40.50;17.63;;;2.40;99.90;;;;;;5071980;28;20206;-59
2022/12/12 10:47:14;;;;;;;43.23;16.97;;;;;;;;;;5071765;28;20212;-58
2022/12/12 10:49:40;;;;;;;43.90;17.20;;;;;;;;;;5071744;28;20178;-58
2022/12/12 10:52:16;;;;;;;46.37;18.47;;;2.20;99.90;;;;;;5071864;28;20165;-59
2022/12/12 10:54:54;;;;;;;48.37;18.57;;;1.90;99.90;;;;;;5071743;28;20172;-59
2022/12/12 10:57:27;;;;;;;45.23;18.17;;;2.00;99.90;;;;;;5071608;28;20194;-59
2022/12/12 10:59:55;;;;;;;44.13;17.90;;;2.00;99.90;;;;;;5071562;28;20655;-59
2022/12/12 11:02:41;;;;;;;43.73;18.30;;;1.70;99.90;;;;;;5071513;28;20184;-59
2022/12/12 11:05:21;;;;;;;38.07;16.27;;;2.20;99.90;;;;;;5071683;28;20242;-59
2022/12/12 11:08:17;;;;;;;40.67;16.90;;;1.50;99.90;;;;;;5071492;28;20215;-61
2022/12/12 11:10:43;;;;;;;40.60;16.97;;;1.90;99.90;;;;;;5071427;28;20177;-60
2022/12/12 11:13:09;;;;;;;43.70;17.10;;;2.00;99.90;;;;;;5070745;28;20504;-60
2022/12/12 11:15:51;;;;;;;48.30;17.40;;;1.80;99.90;;;;;;5063121;28;20862;-58
2022/12/12 11:18:19;;;;;;;46.53;17.70;;;1.70;99.90;;;;;;5071264;28;20214;-60
2022/12/12 11:20:51;;;;;;;38.60;15.57;;;1.40;99.90;;;;;;5071369;28;20377;-58
2022/12/12 11:23:23;;;;;;;43.73;16.43;;;2.10;99.90;;;;;;5071117;28;20667;-59
2022/12/12 11:26:11;;;;;;;39.77;15.77;;;2.40;99.90;;;;;;5071252;28;20177;-59
2022/12/12 11:28:39;;;;;;;35.07;15.13;;;2.10;99.90;;;;;;5071001;28;20675;-59
2022/12/12 11:31:09;;;;;;;37.53;15.50;;;2.20;99.90;;;;;;5071293;28;20168;-58
2022/12/12 11:33:42;;;;;;;39.00;15.13;;;2.00;99.90;;;;;;5059477;28;20227;-58
2022/12/12 11:36:14;;;;;;;37.47;16.47;;;2.10;99.90;;;;;;5089761;28;20306;-60
2022/12/12 11:38:45;;;;;;;37.53;15.50;;;1.60;99.90;;;;;;5084314;28;20176;-61
2022/12/12 11:41:11;;;;;;;32.50;13.73;;;;;;;;;;5071073;28;20169;-59
2022/12/12 11:43:52;;;;;;;39.17;13.53;;;2.00;99.90;;;;;;5086184;28;20169;-59
2022/12/12 11:46:24;;;;;;;37.23;15.03;;;1.90;99.90;;;;;;5071027;28;20193;-59
2022/12/12 11:48:52;;;;;;;40.60;16.30;;;2.30;99.90;;;;;;5070871;28;20181;-59
2022/12/12 11:51:44;;;;;;;36.60;15.93;;;1.90;99.90;;;;;;5081535;28;20164;-59
2022/12/12 11:54:32;;;;;;;39.03;14.67;;;1.80;99.90;;;;;;5091305;28;20175;-61
2022/12/12 11:57:05;;;;;;;40.70;17.67;;;1.60;99.90;;;;;;5091146;28;20186;-59
2022/12/12 12:00:08;;;;;;;42.13;16.83;;;1.80;99.90;;;;;;5091160;28;20194;-60
2022/12/12 12:02:58;;;;;;;41.60;17.23;;;1.90;99.90;;;;;;5091235;28;20225;-59
2022/12/12 12:05:45;;;;;;;41.10;17.20;;;2.30;99.90;;;;;;5091089;28;20164;-59
2022/12/12 12:08:13;;;;;;;44.00;18.07;;;2.30;99.90;;;;;;5089261;28;20256;-59
2022/12/12 12:11:08;;;;;;;44.67;17.47;;;2.30;99.90;;;;;;5085234;28;20209;-59
2022/12/12 12:13:47;;;;;;;38.70;16.70;;;2.10;99.90;;;;;;5088722;28;20313;-58
2022/12/12 12:16:33;;;;;;;41.83;16.90;;;2.10;99.90;;;;;;5090816;28;20176;-61
2022/12/12 12:19:23;;;;;;;45.03;17.67;;;2.40;99.90;;;;;;5089571;28;20176;-60
2022/12/12 12:22:23;;;;;;;42.87;16.17;;;2.40;99.90;;;;;;5090777;28;20180;-59
2022/12/12 12:25:06;;;;;;;27.27;11.00;;;2.80;99.90;;;;;;5090604;28;20164;-59
2022/12/12 12:27:39;;;;;;;31.53;13.00;;;1.70;99.90;;;;;;5091020;28;20219;-59
2022/12/12 12:30:10;;;;;;;35.97;13.70;;;1.80;99.90;;;;;;5090960;28;20172;-63
2022/12/12 12:33:14;;;;;;;31.80;12.60;;;1.60;99.90;;;;;;5090731;28;20246;-59
2022/12/12 12:35:45;;;;;;;30.57;12.07;;;1.80;99.90;;;;;;5077945;28;20227;-59
2022/12/12 12:38:29;;;;;;;26.40;11.33;;;1.80;99.90;;;;;;5090274;28;20215;-60
2022/12/12 12:41:30;;;;;;;31.03;12.10;;;1.90;99.90;;;;;;5090341;28;20211;-59
2022/12/12 12:44:20;;;;;;;29.07;11.10;;;1.80;99.90;;;;;;5073384;28;20294;-60
2022/12/12 12:46:51;;;;;;;26.60;11.20;;;2.00;99.90;;;;;;5090382;28;20249;-59
2022/12/12 12:49:23;;;;;;;28.87;10.93;;;2.00;99.90;;;;;;5090598;28;20174;-60
2022/12/12 12:51:58;;;;;;;33.47;12.73;;;1.80;99.90;;;;;;5090488;28;20215;-59
2022/12/12 12:54:29;;;;;;;26.27;10.40;;;1.80;99.90;;;;;;5089238;28;20682;-60
2022/12/12 12:56:59;;;;;;;31.33;12.30;;;2.00;99.90;;;;;;5093381;28;20184;-59
2022/12/12 12:59:32;;;;;;;30.57;13.33;;;1.70;99.90;;;;;;5094207;28;20164;-59
2022/12/12 13:02:03;;;;;;;45.13;16.03;;;1.80;99.90;;;;;;5094000;28;20234;-59
2022/12/12 13:04:35;;;;;;;41.27;14.90;;;4.00;99.90;;;;;;5089238;28;20459;-59
2022/12/12 13:07:24;;;;;;;41.47;14.33;;;1.70;99.90;;;;;;5090990;28;20246;-59
2022/12/12 13:10:16;;;;;;;36.07;14.63;;;2.10;99.90;;;;;;5094148;28;20176;-59
2022/12/12 13:12:51;;;;;;;38.17;14.27;;;2.00;99.90;;;;;;5093954;28;20164;-60
2022/12/12 13:15:29;;;;;;;39.43;15.23;;;1.80;99.90;;;;;;5094052;28;20249;-59
2022/12/12 13:18:00;;;;;;;40.43;15.70;;;1.60;99.90;;;;;;5093983;28;20187;-59
2022/12/12 13:20:28;;;;;;;46.33;18.37;;;1.90;99.90;;;;;;5093889;28;20247;-59
2022/12/12 13:22:54;;;;;;;49.83;18.23;;;;;;;;;;5093803;28;20194;-60
2022/12/12 13:25:20;;;;;;;48.90;17.53;;;;;;;;;;5093674;28;20176;-59
2022/12/12 13:27:51;;;;;;;46.93;17.50;;;1.60;99.90;;;;;;5093636;28;20207;-59
2022/12/12 13:30:35;;;;;;;43.90;17.70;;;1.90;99.90;;;;;;5093613;28;20192;-60
2022/12/12 13:33:32;;;;;;;45.80;15.80;;;1.70;99.90;;;;;;5093494;28;20168;-59
2022/12/12 13:36:09;;;;;;;41.93;16.43;;;1.70;99.90;;;;;;5092100;28;20577;-59